createdAt,value
2018-11-12T00:00:13.373Z,86.30
2018-11-12T00:02:42.091Z,86.60
2018-11-12T00:05:10.872Z,86.30
2018-11-12T00:07:39.648Z,86.70
2018-11-12T00:10:08.700Z,86.40
2018-11-12T00:12:37.604Z,86.30
2018-11-12T00:15:07.044Z,86.40
2018-11-12T00:17:35.807Z,86.30
2018-11-12T00:20:04.779Z,87.00
2018-11-12T00:22:33.544Z,86.50
2018-11-12T00:25:02.294Z,86.10
2018-11-12T00:27:31.071Z,86.80
2018-11-12T00:29:59.903Z,86.70
2018-11-12T00:32:28.736Z,86.80
2018-11-12T00:34:57.503Z,88.10
2018-11-12T00:37:26.253Z,87.00
2018-11-12T00:39:55.020Z,87.40
2018-11-12T00:42:23.789Z,87.90
2018-11-12T00:44:52.565Z,87.40
2018-11-12T00:47:21.384Z,87.50
2018-11-12T00:49:50.184Z,87.50
2018-11-12T00:52:19.020Z,87.60
2018-11-12T00:54:47.832Z,87.00
2018-11-12T00:57:16.623Z,87.40
2018-11-12T00:59:45.388Z,87.70
2018-11-12T01:02:14.144Z,87.40
2018-11-12T01:04:42.936Z,87.90
2018-11-12T01:07:11.679Z,87.10
2018-11-12T01:09:40.439Z,88.10
2018-11-12T01:12:09.195Z,87.50
2018-11-12T01:14:37.940Z,86.80
2018-11-12T01:17:06.708Z,87.30
2018-11-12T01:19:35.466Z,87.10
2018-11-12T01:22:04.209Z,86.90
2018-11-12T01:24:32.975Z,87.10
2018-11-12T01:27:01.722Z,87.10
2018-11-12T01:29:30.448Z,87.90
2018-11-12T01:31:59.187Z,88.90
2018-11-12T01:34:28.009Z,88.90
2018-11-12T01:36:56.741Z,88.00
2018-11-12T01:39:25.488Z,88.20
2018-11-12T01:41:54.236Z,88.30
2018-11-12T01:44:23.043Z,88.30
2018-11-12T01:46:51.748Z,88.50
2018-11-12T01:49:20.504Z,89.70
2018-11-12T01:51:49.313Z,90.00
2018-11-12T01:54:18.128Z,90.10
2018-11-12T01:56:46.828Z,90.10
2018-11-12T01:59:15.568Z,90.30
2018-11-12T02:01:44.367Z,90.30
2018-11-12T02:04:13.042Z,90.30
2018-11-12T02:06:41.807Z,90.20
2018-11-12T02:09:11.936Z,90.30
2018-11-12T02:11:40.951Z,90.20
2018-11-12T02:14:09.953Z,90.40
2018-11-12T02:16:38.707Z,90.40
2018-11-12T02:19:07.516Z,90.20
2018-11-12T02:21:36.343Z,90.50
2018-11-12T02:24:05.063Z,90.40
2018-11-12T02:26:33.836Z,90.60
2018-11-12T02:29:02.612Z,90.50
2018-11-12T02:31:31.376Z,90.40
2018-11-12T02:34:00.116Z,90.40
2018-11-12T02:36:28.953Z,90.50
2018-11-12T02:38:57.728Z,90.90
2018-11-12T02:41:26.500Z,91.10
2018-11-12T02:43:55.268Z,91.30
2018-11-12T02:46:24.060Z,91.50
2018-11-12T02:48:52.856Z,91.20
2018-11-12T02:51:21.675Z,91.10
2018-11-12T02:53:50.480Z,91.00
2018-11-12T02:56:19.324Z,90.80
2018-11-12T02:58:48.476Z,90.80
2018-11-12T03:01:21.772Z,91.00
2018-11-12T03:03:51.084Z,90.80
2018-11-12T03:06:20.103Z,90.90
2018-11-12T03:08:48.932Z,91.20
2018-11-12T03:11:17.973Z,91.20
2018-11-12T03:13:46.745Z,91.40
2018-11-12T03:16:15.475Z,91.30
2018-11-12T03:18:44.222Z,91.30
2018-11-12T03:21:13.026Z,91.50
2018-11-12T03:23:41.760Z,91.40
2018-11-12T03:26:10.560Z,91.20
2018-11-12T03:28:39.316Z,91.10
2018-11-12T03:31:08.040Z,91.20
2018-11-12T03:33:36.786Z,91.40
2018-11-12T03:36:05.827Z,91.90
2018-11-12T03:38:34.597Z,91.50
2018-11-12T03:41:03.307Z,91.50
2018-11-12T03:43:32.041Z,91.50
2018-11-12T03:46:00.791Z,91.70
2018-11-12T03:48:29.529Z,91.60
2018-11-12T03:50:58.276Z,91.70
2018-11-12T03:53:27.015Z,91.60
2018-11-12T03:55:55.783Z,91.80
2018-11-12T03:58:24.527Z,91.80
2018-11-12T04:00:53.308Z,91.70
2018-11-12T04:03:22.089Z,91.60
2018-11-12T04:05:50.860Z,91.50
2018-11-12T04:08:19.620Z,91.70
2018-11-12T04:10:48.413Z,91.80
2018-11-12T04:13:17.156Z,91.80
2018-11-12T04:15:45.943Z,91.90
2018-11-12T04:18:14.716Z,92.10
2018-11-12T04:20:43.475Z,91.90
2018-11-12T04:23:12.337Z,91.90
2018-11-12T04:25:41.352Z,92.20
2018-11-12T04:28:10.095Z,92.20
2018-11-12T04:30:38.809Z,92.10
2018-11-12T04:33:07.558Z,92.10
2018-11-12T04:35:36.276Z,91.90
2018-11-12T04:38:05.057Z,91.70
2018-11-12T04:40:33.796Z,91.60
2018-11-12T04:43:02.538Z,92.00
2018-11-12T04:45:31.291Z,92.00
2018-11-12T04:48:00.029Z,91.80
2018-11-12T04:50:29.240Z,91.80
2018-11-12T04:52:57.973Z,91.80
2018-11-12T04:55:26.844Z,92.10
2018-11-12T04:57:55.444Z,92.10
2018-11-12T05:00:25.474Z,91.90
2018-11-12T05:02:54.219Z,92.10
2018-11-12T05:05:24.194Z,92.20
2018-11-12T05:07:53.182Z,91.90
2018-11-12T05:10:24.269Z,92.20
2018-11-12T05:12:54.295Z,92.00
2018-11-12T05:15:24.003Z,91.90
2018-11-12T05:17:52.764Z,92.40
2018-11-12T05:20:24.669Z,92.00
2018-11-12T05:22:53.438Z,92.20
2018-11-12T05:25:22.228Z,92.30
2018-11-12T05:27:52.045Z,92.00
2018-11-12T05:30:23.876Z,92.00
2018-11-12T05:32:52.691Z,92.10
2018-11-12T05:35:22.819Z,92.70
2018-11-12T05:37:51.735Z,92.30
2018-11-12T05:40:21.674Z,92.20
2018-11-12T05:42:50.444Z,92.30
2018-11-12T05:45:20.364Z,92.20
2018-11-12T05:47:49.127Z,92.20
2018-11-12T05:50:19.116Z,92.10
2018-11-12T05:52:49.173Z,92.10
2018-11-12T05:55:19.216Z,92.10
2018-11-12T05:57:48.265Z,91.90
2018-11-12T06:00:20.350Z,92.20
2018-11-12T06:02:49.196Z,92.20
2018-11-12T06:05:18.021Z,92.10
2018-11-12T06:07:46.819Z,92.20
2018-11-12T06:10:17.206Z,92.10
2018-11-12T06:12:46.199Z,91.90
2018-11-12T06:15:15.188Z,91.60
2018-11-12T06:17:44.777Z,91.60
2018-11-12T06:20:19.459Z,92.00
2018-11-12T06:22:48.274Z,92.10
2018-11-12T06:25:18.445Z,92.10
2018-11-12T06:27:47.611Z,92.20
2018-11-12T06:30:17.691Z,92.20
2018-11-12T06:32:46.419Z,92.00
2018-11-12T06:35:15.567Z,92.20
2018-11-12T06:37:44.980Z,92.20
2018-11-12T06:40:16.031Z,92.30
2018-11-12T06:42:44.933Z,92.40
2018-11-12T06:45:15.659Z,92.50
2018-11-12T06:47:45.304Z,92.50
2018-11-12T06:50:16.237Z,92.40
2018-11-12T06:52:45.039Z,92.40
2018-11-12T06:55:14.583Z,92.20
2018-11-12T06:57:43.798Z,92.00
2018-11-12T07:00:14.940Z,92.20
2018-11-12T07:02:43.704Z,92.20
2018-11-12T07:05:12.831Z,92.20
2018-11-12T07:07:41.604Z,92.20
2018-11-12T07:10:12.698Z,92.30
2018-11-12T07:12:42.424Z,92.40
2018-11-12T07:15:27.100Z,92.50
2018-11-12T07:18:01.680Z,92.60
2018-11-12T07:20:45.352Z,92.60
2018-11-12T07:23:14.116Z,92.50
2018-11-12T07:25:42.871Z,92.50
2018-11-12T07:28:11.631Z,92.50
2018-11-12T07:30:40.483Z,92.80
2018-11-12T07:33:09.244Z,92.00
2018-11-12T07:35:37.987Z,92.10
2018-11-12T07:38:06.775Z,92.10
2018-11-12T07:40:35.556Z,92.20
2018-11-12T07:43:04.762Z,92.20
2018-11-12T07:45:33.552Z,92.40
2018-11-12T07:48:02.306Z,92.30
2018-11-12T07:50:31.448Z,92.00
2018-11-12T07:53:00.192Z,92.00
2018-11-12T07:55:29.421Z,92.00
2018-11-12T07:57:59.008Z,91.90
2018-11-12T08:00:30.306Z,91.80
2018-11-12T08:03:05.365Z,91.70
2018-11-12T08:05:34.363Z,91.80
2018-11-12T08:08:03.184Z,91.70
2018-11-12T08:10:31.966Z,91.80
2018-11-12T08:13:00.727Z,91.80
2018-11-12T08:15:29.469Z,91.80
2018-11-12T08:17:58.247Z,91.90
2018-11-12T08:20:27.320Z,92.10
2018-11-12T08:22:56.101Z,91.70
2018-11-12T08:25:24.860Z,91.60
2018-11-12T08:27:53.636Z,92.10
2018-11-12T08:30:24.843Z,91.80
2018-11-12T08:32:54.915Z,91.90
2018-11-12T08:35:23.640Z,92.00
2018-11-12T08:37:53.028Z,91.50
2018-11-12T08:40:23.092Z,91.20
2018-11-12T08:42:51.843Z,90.90
2018-11-12T08:45:20.637Z,91.20
2018-11-12T08:47:51.612Z,91.00
2018-11-12T08:50:22.403Z,91.30
2018-11-12T08:52:52.012Z,90.90
2018-11-12T08:55:22.146Z,90.20
2018-11-12T08:57:52.144Z,89.60
2018-11-12T09:00:21.903Z,88.90
2018-11-12T09:02:50.830Z,89.30
2018-11-12T09:05:20.752Z,89.00
2018-11-12T09:07:51.022Z,89.10
2018-11-12T09:10:21.848Z,88.90
2018-11-12T09:12:50.634Z,87.30
2018-11-12T09:15:19.462Z,83.40
2018-11-12T09:17:48.756Z,73.50
2018-11-12T09:20:19.712Z,64.60
2018-11-12T09:22:48.514Z,60.10
2018-11-12T09:25:18.480Z,61.20
2018-11-12T09:27:47.268Z,63.00
2018-11-12T09:30:17.999Z,65.90
2018-11-12T09:32:48.017Z,68.60
2018-11-12T09:35:18.004Z,69.00
2018-11-12T09:37:47.867Z,65.80
2018-11-12T09:40:19.337Z,58.80
2018-11-12T09:42:48.204Z,56.60
2018-11-12T09:45:16.984Z,61.20
2018-11-12T09:47:46.202Z,66.60
2018-11-12T09:50:16.064Z,69.10
2018-11-12T09:52:46.026Z,70.90
2018-11-12T09:55:15.509Z,71.90
2018-11-12T09:57:45.725Z,73.00
2018-11-12T10:00:16.026Z,73.00
2018-11-12T10:02:46.646Z,73.30
2018-11-12T10:05:16.244Z,72.80
2018-11-12T10:07:46.325Z,71.70
2018-11-12T10:10:24.720Z,69.50
2018-11-12T10:12:53.143Z,63.80
2018-11-12T10:15:22.167Z,64.70
2018-11-12T10:17:51.236Z,66.30
2018-11-12T10:20:17.322Z,69.90
2018-11-12T10:22:46.544Z,73.20
2018-11-12T10:25:15.280Z,74.40
2018-11-12T10:27:44.125Z,75.70
2018-11-12T10:30:12.876Z,77.60
2018-11-12T10:32:41.631Z,77.80
2018-11-12T10:35:10.720Z,77.80
2018-11-12T10:37:40.251Z,76.50
2018-11-12T10:40:12.772Z,76.80
2018-11-12T10:42:41.665Z,78.70
2018-11-12T10:45:10.045Z,77.40
2018-11-12T10:47:38.795Z,76.70
2018-11-12T10:50:07.636Z,76.30
2018-11-12T10:52:36.769Z,76.70
2018-11-12T10:55:08.416Z,75.50
2018-11-12T10:57:37.170Z,75.40
2018-11-12T11:00:14.587Z,74.40
2018-11-12T11:02:48.751Z,74.30
2018-11-12T11:05:17.535Z,75.30
2018-11-12T11:07:46.280Z,76.00
2018-11-12T11:10:15.027Z,76.90
2018-11-12T11:12:44.691Z,77.20
2018-11-12T11:15:13.847Z,78.30
2018-11-12T11:17:42.584Z,79.80
2018-11-12T11:20:11.352Z,79.60
2018-11-12T11:22:40.091Z,77.10
2018-11-12T11:25:08.840Z,75.70
2018-11-12T11:27:37.900Z,73.50
2018-11-12T11:30:08.804Z,71.70
2018-11-12T11:32:37.632Z,71.10
2018-11-12T11:35:07.552Z,73.80
2018-11-12T11:37:36.341Z,73.60
2018-11-12T11:40:11.689Z,71.10
2018-11-12T11:42:40.568Z,72.70
2018-11-12T11:45:10.391Z,71.10
2018-11-12T11:47:39.794Z,71.20
2018-11-12T11:50:09.967Z,70.60
2018-11-12T11:52:38.632Z,72.80
2018-11-12T11:55:09.016Z,72.80
2018-11-12T11:57:38.055Z,72.60
2018-11-12T12:00:11.363Z,72.00
2018-11-12T12:02:40.312Z,71.90
2018-11-12T12:05:10.292Z,72.50
2018-11-12T12:07:39.140Z,73.50
2018-11-12T12:10:08.629Z,73.50
2018-11-12T12:12:37.453Z,74.10
2018-11-12T12:15:07.843Z,74.50
2018-11-12T12:17:36.880Z,73.90
2018-11-12T12:20:08.555Z,74.00
2018-11-12T12:22:37.308Z,74.40
2018-11-12T12:25:06.881Z,73.80
2018-11-12T12:27:35.616Z,74.70
2018-11-12T12:30:05.662Z,74.60
2018-11-12T12:32:34.465Z,75.10
2018-11-12T12:35:03.187Z,74.40
2018-11-12T12:37:32.000Z,74.30
2018-11-12T12:40:00.704Z,74.80
2018-11-12T12:42:29.496Z,73.90
2018-11-12T12:44:58.336Z,75.00
2018-11-12T12:47:27.025Z,75.20
2018-11-12T12:49:55.799Z,75.00
2018-11-12T12:52:24.556Z,75.40
2018-11-12T12:54:53.327Z,75.30
2018-11-12T12:57:22.146Z,75.70
2018-11-12T12:59:50.993Z,76.40
2018-11-12T13:02:19.782Z,76.70
2018-11-12T13:04:48.704Z,77.20
2018-11-12T13:07:17.497Z,78.80
2018-11-12T13:09:46.213Z,80.20
2018-11-12T13:12:14.979Z,80.20
2018-11-12T13:14:43.888Z,81.70
2018-11-12T13:17:12.583Z,81.60
2018-11-12T13:19:41.369Z,81.70
2018-11-12T13:22:10.140Z,81.80
2018-11-12T13:24:38.916Z,81.80
2018-11-12T13:27:07.738Z,82.00
2018-11-12T13:29:36.593Z,82.40
2018-11-12T13:32:05.340Z,82.50
2018-11-12T13:34:34.127Z,82.80
2018-11-12T13:37:02.904Z,82.60
2018-11-12T13:39:31.758Z,82.20
2018-11-12T13:42:00.443Z,82.70
2018-11-12T13:44:29.224Z,82.20
2018-11-12T13:46:58.834Z,82.70
2018-11-12T13:49:27.616Z,82.50
2018-11-12T13:51:56.399Z,82.20
2018-11-12T13:54:25.175Z,81.60
2018-11-12T13:56:53.959Z,81.90
2018-11-12T13:59:22.727Z,82.30
2018-11-12T14:01:51.488Z,82.40
2018-11-12T14:04:20.276Z,83.40
2018-11-12T14:06:49.020Z,84.10
2018-11-12T14:09:17.865Z,84.80
2018-11-12T14:11:46.649Z,85.00
2018-11-12T14:14:15.426Z,84.50
2018-11-12T14:16:44.174Z,85.10
2018-11-12T14:19:12.909Z,83.60
2018-11-12T14:21:41.905Z,82.60
2018-11-12T14:24:10.388Z,82.50
2018-11-12T14:26:39.119Z,82.20
2018-11-12T14:29:08.328Z,82.80
2018-11-12T14:31:37.053Z,82.20
2018-11-12T14:34:05.820Z,81.90
2018-11-12T14:36:34.672Z,81.90
2018-11-12T14:39:04.476Z,81.90
2018-11-12T14:41:33.200Z,81.80
2018-11-12T14:44:01.974Z,82.00
2018-11-12T14:46:30.715Z,82.40
2018-11-12T14:48:59.464Z,82.40
2018-11-12T14:51:28.220Z,82.50
2018-11-12T14:53:56.964Z,82.40
2018-11-12T14:56:25.712Z,81.60
2018-11-12T14:58:54.476Z,82.40
2018-11-12T15:01:23.263Z,82.50
2018-11-12T15:03:52.080Z,82.40
2018-11-12T15:06:20.856Z,82.90
2018-11-12T15:08:49.667Z,82.90
2018-11-12T15:11:18.400Z,82.70
2018-11-12T15:13:47.187Z,83.40
2018-11-12T15:16:15.955Z,83.60
2018-11-12T15:18:44.715Z,83.40
2018-11-12T15:21:13.550Z,83.90
2018-11-12T15:23:42.279Z,84.10
2018-11-12T15:26:11.031Z,84.20
2018-11-12T15:28:39.812Z,84.20
2018-11-12T15:31:08.573Z,84.40
2018-11-12T15:33:37.356Z,84.40
2018-11-12T15:36:06.228Z,84.20
2018-11-12T15:38:35.024Z,84.40
2018-11-12T15:41:03.813Z,84.20
2018-11-12T15:43:32.570Z,84.40
2018-11-12T15:46:01.329Z,84.90
2018-11-12T15:48:30.104Z,86.20
2018-11-12T15:50:58.939Z,85.20
2018-11-12T15:53:27.673Z,85.60
2018-11-12T15:55:56.447Z,85.90
2018-11-12T15:58:25.288Z,86.00
2018-11-12T16:00:53.983Z,85.60
2018-11-12T16:03:22.740Z,85.80
2018-11-12T16:05:51.531Z,86.00
2018-11-12T16:08:20.496Z,85.80
2018-11-12T16:10:49.266Z,86.20
2018-11-12T16:13:18.004Z,86.60
2018-11-12T16:15:46.744Z,86.80
2018-11-12T16:18:15.477Z,86.80
2018-11-12T16:20:44.224Z,87.00
2018-11-12T16:23:13.156Z,86.80
2018-11-12T16:25:41.941Z,86.60
2018-11-12T16:28:10.679Z,86.50
2018-11-12T16:30:39.525Z,86.40
2018-11-12T16:33:08.256Z,85.70
2018-11-12T16:35:36.999Z,85.50
2018-11-12T16:38:06.015Z,86.00
2018-11-12T16:40:34.767Z,86.00
2018-11-12T16:43:03.508Z,86.50
2018-11-12T16:45:32.252Z,86.30
2018-11-12T16:48:01.082Z,86.20
2018-11-12T16:50:29.897Z,85.90
2018-11-12T16:52:58.660Z,86.60
2018-11-12T16:55:27.436Z,86.20
2018-11-12T16:57:56.200Z,86.50
2018-11-12T17:00:25.332Z,86.70
2018-11-12T17:02:54.089Z,86.50
2018-11-12T17:05:24.065Z,86.40
2018-11-12T17:07:52.832Z,85.90
2018-11-12T17:10:22.990Z,86.60
2018-11-12T17:12:51.836Z,86.60
2018-11-12T17:15:20.663Z,87.00
2018-11-12T17:17:49.741Z,86.80
2018-11-12T17:20:19.662Z,86.90
2018-11-12T17:22:48.487Z,87.10
2018-11-12T17:25:17.553Z,86.70
2018-11-12T17:27:46.745Z,86.60
2018-11-12T17:30:18.565Z,86.30
2018-11-12T17:32:47.702Z,86.30
2018-11-12T17:35:17.554Z,86.10
2018-11-12T17:37:46.311Z,86.30
2018-11-12T17:40:16.912Z,86.00
2018-11-12T17:42:46.733Z,85.90
2018-11-12T17:45:16.787Z,86.30
2018-11-12T17:47:46.811Z,86.30
2018-11-12T17:50:15.620Z,86.40
2018-11-12T17:52:44.414Z,86.40
2018-11-12T17:55:13.444Z,86.50
2018-11-12T17:57:42.214Z,86.50
2018-11-12T18:00:22.256Z,86.50
2018-11-12T18:02:51.048Z,86.60
2018-11-12T18:05:19.807Z,87.40
2018-11-12T18:07:48.669Z,86.60
2018-11-12T18:10:17.968Z,86.40
2018-11-12T18:12:46.755Z,86.80
2018-11-12T18:15:16.864Z,86.90
2018-11-12T18:17:45.624Z,86.60
2018-11-12T18:20:16.159Z,86.90
2018-11-12T18:22:44.997Z,86.80
2018-11-12T18:25:14.315Z,86.60
2018-11-12T18:27:43.118Z,87.00
2018-11-12T18:30:16.139Z,87.20
2018-11-12T18:32:45.612Z,87.30
2018-11-12T18:35:14.396Z,87.40
2018-11-12T18:37:43.154Z,87.60
2018-11-12T18:40:13.606Z,87.40
2018-11-12T18:42:42.456Z,87.60
2018-11-12T18:45:14.625Z,87.40
2018-11-12T18:47:43.608Z,87.60
2018-11-12T18:50:17.615Z,87.60
2018-11-12T18:52:46.669Z,87.70
2018-11-12T18:55:15.473Z,87.90
2018-11-12T18:57:44.877Z,88.10
2018-11-12T19:00:15.183Z,87.90
2018-11-12T19:02:43.980Z,87.70
2018-11-12T19:05:14.595Z,87.90
2018-11-12T19:07:44.260Z,88.10
2018-11-12T19:10:14.740Z,88.30
2018-11-12T19:12:44.320Z,87.80
2018-11-12T19:15:14.243Z,88.80
2018-11-12T19:17:44.049Z,88.70
2018-11-12T19:20:13.444Z,88.70
2018-11-12T19:22:42.244Z,88.50
2018-11-12T19:25:12.007Z,88.60
2018-11-12T19:27:41.115Z,89.20
2018-11-12T19:30:12.803Z,89.00
2018-11-12T19:32:41.740Z,88.90
2018-11-12T19:35:12.025Z,89.00
2018-11-12T19:37:40.812Z,89.10
2018-11-12T19:40:12.140Z,90.10
2018-11-12T19:42:40.888Z,89.10
2018-11-12T19:45:10.929Z,89.30
2018-11-12T19:47:39.742Z,89.40
2018-11-12T19:50:10.789Z,89.00
2018-11-12T19:52:39.993Z,88.90
2018-11-12T19:55:08.791Z,88.20
2018-11-12T19:57:37.577Z,88.90
2018-11-12T20:00:11.908Z,89.10
2018-11-12T20:02:41.543Z,89.10
2018-11-12T20:05:10.452Z,88.90
2018-11-12T20:07:39.660Z,88.90
2018-11-12T20:10:11.582Z,88.70
2018-11-12T20:12:40.408Z,88.90
2018-11-12T20:15:10.167Z,88.50
2018-11-12T20:17:39.320Z,88.50
2018-11-12T20:20:10.271Z,88.40
2018-11-12T20:22:39.251Z,88.60
2018-11-12T20:25:08.660Z,88.70
2018-11-12T20:27:37.474Z,88.60
2018-11-12T20:30:09.452Z,88.90
2018-11-12T20:32:38.377Z,88.90
2018-11-12T20:35:07.528Z,88.70
2018-11-12T20:37:36.471Z,88.20
2018-11-12T20:40:06.021Z,88.00
2018-11-12T20:42:35.052Z,88.20
2018-11-12T20:45:03.953Z,88.00
2018-11-12T20:47:32.685Z,87.90
2018-11-12T20:50:01.456Z,87.60
2018-11-12T20:52:30.287Z,87.30
2018-11-12T20:54:59.023Z,87.20
2018-11-12T20:57:27.799Z,87.20
2018-11-12T20:59:56.571Z,87.40
2018-11-12T21:02:25.938Z,87.30
2018-11-12T21:04:54.776Z,87.80
2018-11-12T21:07:23.660Z,87.20
2018-11-12T21:09:52.400Z,88.20
2018-11-12T21:12:21.196Z,87.70
2018-11-12T21:14:50.064Z,88.00
2018-11-12T21:17:18.808Z,87.60
2018-11-12T21:19:47.773Z,87.80
2018-11-12T21:22:16.593Z,87.70
2018-11-12T21:24:45.345Z,87.90
2018-11-12T21:27:14.144Z,87.80
2018-11-12T21:29:42.922Z,88.00
2018-11-12T21:32:11.712Z,87.90
2018-11-12T21:34:40.469Z,88.30
2018-11-12T21:37:09.264Z,88.20
2018-11-12T21:39:37.940Z,88.60
2018-11-12T21:42:06.772Z,88.60
2018-11-12T21:44:35.516Z,88.60
2018-11-12T21:47:04.275Z,88.00
2018-11-12T21:49:33.099Z,87.70
2018-11-12T21:52:01.776Z,88.00
2018-11-12T21:54:30.530Z,87.70
2018-11-12T21:56:59.383Z,87.60
2018-11-12T21:59:28.178Z,87.70
2018-11-12T22:01:56.990Z,87.60
2018-11-12T22:04:25.788Z,88.20
2018-11-12T22:06:54.557Z,88.40
2018-11-12T22:09:23.338Z,87.30
2018-11-12T22:11:52.051Z,87.50
2018-11-12T22:14:20.845Z,87.50
2018-11-12T22:16:49.595Z,88.40
2018-11-12T22:19:18.424Z,87.30
2018-11-12T22:21:47.220Z,87.80
2018-11-12T22:24:15.999Z,87.50
2018-11-12T22:26:44.759Z,87.90
2018-11-12T22:29:13.542Z,88.10
2018-11-12T22:31:42.310Z,88.00
2018-11-12T22:34:11.085Z,87.70
2018-11-12T22:36:39.962Z,88.70
2018-11-12T22:39:09.633Z,88.10
2018-11-12T22:41:38.414Z,88.20
2018-11-12T22:44:08.203Z,87.80
2018-11-12T22:46:36.961Z,88.00
2018-11-12T22:49:05.798Z,87.50
2018-11-12T22:51:34.575Z,87.90
2018-11-12T22:54:03.397Z,87.60
2018-11-12T22:56:32.124Z,88.20
2018-11-12T22:59:00.892Z,87.20
2018-11-12T23:01:29.772Z,87.40
2018-11-12T23:03:58.596Z,87.30
2018-11-12T23:06:27.377Z,87.10
2018-11-12T23:11:56.571Z,87.80
2018-11-12T23:14:25.437Z,88.90
2018-11-12T23:16:54.249Z,89.00
2018-11-12T23:19:36.930Z,89.20
2018-11-12T23:22:05.790Z,89.50
2018-11-12T23:24:34.668Z,89.50
2018-11-12T23:27:03.552Z,89.30
2018-11-12T23:29:32.780Z,89.20
2018-11-12T23:32:01.757Z,89.10
2018-11-12T23:34:30.645Z,89.30
2018-11-12T23:36:59.528Z,89.70
2018-11-12T23:39:28.461Z,90.00
2018-11-12T23:41:57.346Z,90.00
2018-11-12T23:44:26.220Z,90.00
2018-11-12T23:46:55.398Z,90.00
2018-11-12T23:49:24.221Z,90.00
2018-11-12T23:51:53.085Z,89.70
2018-11-12T23:54:21.997Z,89.50
2018-11-12T23:56:50.878Z,90.00
2018-11-12T23:59:20.063Z,89.80
